sensor_id;sensor_type;location;lat;lon;timestamp;P1;durP1;ratioP1;P2;durP2;ratioP2
22963;SDS011;11648;49.306;6.934;2023-05-16T00:01:47;17.67;;;10.60;;
22963;SDS011;11648;49.306;6.934;2023-05-16T00:04:14;16.00;;;10.73;;
22963;SDS011;11648;49.306;6.934;2023-05-16T00:06:41;14.63;;;9.37;;
22963;SDS011;11648;49.306;6.934;2023-05-16T00:09:08;16.30;;;9.60;;
22963;SDS011;11648;49.306;6.934;2023-05-16T00:11:35;17.10;;;9.60;;
22963;SDS011;11648;49.306;6.934;2023-05-16T00:14:02;14.43;;;8.80;;
22963;SDS011;11648;49.306;6.934;2023-05-16T00:16:29;12.93;;;8.23;;
22963;SDS011;11648;49.306;6.934;2023-05-16T00:18:56;12.77;;;8.90;;
22963;SDS011;11648;49.306;6.934;2023-05-16T00:21:26;14.00;;;9.10;;
22963;SDS011;11648;49.306;6.934;2023-05-16T00:23:53;12.97;;;8.80;;
22963;SDS011;11648;49.306;6.934;2023-05-16T00:26:20;13.30;;;8.53;;
22963;SDS011;11648;49.306;6.934;2023-05-16T00:28:47;13.50;;;8.33;;
22963;SDS011;11648;49.306;6.934;2023-05-16T00:31:14;12.47;;;8.73;;
22963;SDS011;11648;49.306;6.934;2023-05-16T00:33:41;12.83;;;8.83;;
22963;SDS011;11648;49.306;6.934;2023-05-16T00:36:08;14.03;;;8.93;;
22963;SDS011;11648;49.306;6.934;2023-05-16T00:38:35;14.23;;;9.27;;
22963;SDS011;11648;49.306;6.934;2023-05-16T00:41:02;15.37;;;7.97;;
22963;SDS011;11648;49.306;6.934;2023-05-16T00:43:29;11.90;;;8.13;;
22963;SDS011;11648;49.306;6.934;2023-05-16T00:45:56;11.93;;;8.33;;
22963;SDS011;11648;49.306;6.934;2023-05-16T00:48:23;11.37;;;7.73;;
22963;SDS011;11648;49.306;6.934;2023-05-16T00:50:50;11.77;;;7.60;;
22963;SDS011;11648;49.306;6.934;2023-05-16T00:53:20;12.73;;;8.20;;
22963;SDS011;11648;49.306;6.934;2023-05-16T00:55:47;11.17;;;7.30;;
22963;SDS011;11648;49.306;6.934;2023-05-16T00:58:14;12.53;;;8.07;;
22963;SDS011;11648;49.306;6.934;2023-05-16T01:00:41;11.47;;;8.13;;
22963;SDS011;11648;49.306;6.934;2023-05-16T01:03:13;10.40;;;8.10;;
22963;SDS011;11648;49.306;6.934;2023-05-16T01:05:40;10.23;;;7.60;;
22963;SDS011;11648;49.306;6.934;2023-05-16T01:08:07;10.40;;;7.20;;
22963;SDS011;11648;49.306;6.934;2023-05-16T01:10:38;11.83;;;7.80;;
22963;SDS011;11648;49.306;6.934;2023-05-16T01:13:18;12.43;;;7.40;;
22963;SDS011;11648;49.306;6.934;2023-05-16T01:15:58;8.93;;;7.17;;
22963;SDS011;11648;49.306;6.934;2023-05-16T01:18:35;10.23;;;7.43;;
22963;SDS011;11648;49.306;6.934;2023-05-16T01:21:05;9.53;;;7.20;;
22963;SDS011;11648;49.306;6.934;2023-05-16T01:26:26;9.57;;;6.67;;
22963;SDS011;11648;49.306;6.934;2023-05-16T01:28:53;10.17;;;6.67;;
22963;SDS011;11648;49.306;6.934;2023-05-16T01:31:21;9.30;;;6.63;;
22963;SDS011;11648;49.306;6.934;2023-05-16T01:33:50;9.43;;;6.77;;
22963;SDS011;11648;49.306;6.934;2023-05-16T01:41:54;10.53;;;6.70;;
22963;SDS011;11648;49.306;6.934;2023-05-16T01:44:34;8.47;;;6.50;;
22963;SDS011;11648;49.306;6.934;2023-05-16T01:47:07;9.87;;;6.20;;
22963;SDS011;11648;49.306;6.934;2023-05-16T01:52:15;9.13;;;6.57;;
22963;SDS011;11648;49.306;6.934;2023-05-16T01:54:47;9.67;;;6.97;;
22963;SDS011;11648;49.306;6.934;2023-05-16T01:57:20;9.63;;;7.00;;
22963;SDS011;11648;49.306;6.934;2023-05-16T01:59:50;11.20;;;6.70;;
22963;SDS011;11648;49.306;6.934;2023-05-16T02:02:18;7.67;;;5.93;;
22963;SDS011;11648;49.306;6.934;2023-05-16T02:04:45;8.77;;;6.47;;
22963;SDS011;11648;49.306;6.934;2023-05-16T02:07:14;10.37;;;6.63;;
22963;SDS011;11648;49.306;6.934;2023-05-16T02:09:43;9.67;;;6.43;;
22963;SDS011;11648;49.306;6.934;2023-05-16T02:12:10;8.00;;;5.83;;
22963;SDS011;11648;49.306;6.934;2023-05-16T02:14:37;6.97;;;5.43;;
22963;SDS011;11648;49.306;6.934;2023-05-16T02:17:05;8.57;;;6.27;;
22963;SDS011;11648;49.306;6.934;2023-05-16T02:19:32;10.07;;;6.10;;
22963;SDS011;11648;49.306;6.934;2023-05-16T02:21:59;8.27;;;6.07;;
22963;SDS011;11648;49.306;6.934;2023-05-16T02:24:26;8.97;;;6.10;;
22963;SDS011;11648;49.306;6.934;2023-05-16T02:26:54;11.20;;;6.77;;
22963;SDS011;11648;49.306;6.934;2023-05-16T02:29:21;8.73;;;5.90;;
22963;SDS011;11648;49.306;6.934;2023-05-16T02:31:47;9.80;;;6.10;;
22963;SDS011;11648;49.306;6.934;2023-05-16T02:34:14;9.53;;;5.97;;
22963;SDS011;11648;49.306;6.934;2023-05-16T02:36:41;7.90;;;5.87;;
22963;SDS011;11648;49.306;6.934;2023-05-16T02:39:08;9.17;;;5.90;;
22963;SDS011;11648;49.306;6.934;2023-05-16T02:41:35;9.00;;;5.80;;
22963;SDS011;11648;49.306;6.934;2023-05-16T02:44:02;10.20;;;5.97;;
22963;SDS011;11648;49.306;6.934;2023-05-16T02:46:30;7.83;;;5.63;;
22963;SDS011;11648;49.306;6.934;2023-05-16T02:48:58;7.70;;;5.93;;
22963;SDS011;11648;49.306;6.934;2023-05-16T02:51:26;9.47;;;5.90;;
22963;SDS011;11648;49.306;6.934;2023-05-16T02:53:53;7.43;;;5.87;;
22963;SDS011;11648;49.306;6.934;2023-05-16T02:56:22;7.87;;;5.40;;
22963;SDS011;11648;49.306;6.934;2023-05-16T02:58:49;7.50;;;5.33;;
22963;SDS011;11648;49.306;6.934;2023-05-16T03:01:16;7.30;;;5.70;;
22963;SDS011;11648;49.306;6.934;2023-05-16T03:03:43;7.67;;;5.77;;
22963;SDS011;11648;49.306;6.934;2023-05-16T03:06:10;8.00;;;5.50;;
22963;SDS011;11648;49.306;6.934;2023-05-16T03:08:37;7.87;;;5.53;;
22963;SDS011;11648;49.306;6.934;2023-05-16T03:11:04;7.73;;;5.73;;
22963;SDS011;11648;49.306;6.934;2023-05-16T03:13:31;7.50;;;5.60;;
22963;SDS011;11648;49.306;6.934;2023-05-16T03:15:58;9.60;;;5.80;;
22963;SDS011;11648;49.306;6.934;2023-05-16T03:18:25;8.30;;;5.53;;
22963;SDS011;11648;49.306;6.934;2023-05-16T03:20:52;8.73;;;5.73;;
22963;SDS011;11648;49.306;6.934;2023-05-16T03:23:19;7.80;;;5.37;;
22963;SDS011;11648;49.306;6.934;2023-05-16T03:25:46;7.33;;;5.50;;
22963;SDS011;11648;49.306;6.934;2023-05-16T03:28:13;8.57;;;5.50;;
22963;SDS011;11648;49.306;6.934;2023-05-16T03:30:41;8.00;;;5.37;;
22963;SDS011;11648;49.306;6.934;2023-05-16T03:33:09;6.43;;;4.93;;
22963;SDS011;11648;49.306;6.934;2023-05-16T03:35:35;8.37;;;5.07;;
22963;SDS011;11648;49.306;6.934;2023-05-16T03:38:03;7.23;;;4.77;;
22963;SDS011;11648;49.306;6.934;2023-05-16T03:40:30;8.33;;;4.97;;
22963;SDS011;11648;49.306;6.934;2023-05-16T03:42:56;7.93;;;4.70;;
22963;SDS011;11648;49.306;6.934;2023-05-16T03:45:23;6.87;;;4.63;;
22963;SDS011;11648;49.306;6.934;2023-05-16T03:47:50;7.27;;;4.50;;
22963;SDS011;11648;49.306;6.934;2023-05-16T03:50:17;9.57;;;4.53;;
22963;SDS011;11648;49.306;6.934;2023-05-16T03:52:44;9.37;;;4.20;;
22963;SDS011;11648;49.306;6.934;2023-05-16T03:55:11;5.97;;;4.33;;
22963;SDS011;11648;49.306;6.934;2023-05-16T03:57:40;5.53;;;4.00;;
22963;SDS011;11648;49.306;6.934;2023-05-16T04:00:10;7.00;;;4.30;;
22963;SDS011;11648;49.306;6.934;2023-05-16T04:02:38;6.07;;;4.37;;
22963;SDS011;11648;49.306;6.934;2023-05-16T04:05:07;5.90;;;4.23;;
22963;SDS011;11648;49.306;6.934;2023-05-16T04:07:35;6.37;;;4.37;;
22963;SDS011;11648;49.306;6.934;2023-05-16T04:10:02;6.73;;;4.30;;
22963;SDS011;11648;49.306;6.934;2023-05-16T04:12:30;6.93;;;4.23;;
22963;SDS011;11648;49.306;6.934;2023-05-16T04:14:57;5.67;;;4.20;;
22963;SDS011;11648;49.306;6.934;2023-05-16T04:17:24;7.60;;;4.60;;
22963;SDS011;11648;49.306;6.934;2023-05-16T04:19:51;5.10;;;3.60;;
22963;SDS011;11648;49.306;6.934;2023-05-16T04:22:19;7.57;;;4.20;;
22963;SDS011;11648;49.306;6.934;2023-05-16T04:24:47;6.37;;;3.97;;
22963;SDS011;11648;49.306;6.934;2023-05-16T04:27:14;7.17;;;4.23;;
22963;SDS011;11648;49.306;6.934;2023-05-16T04:29:41;7.17;;;3.73;;
22963;SDS011;11648;49.306;6.934;2023-05-16T04:32:08;4.73;;;3.23;;
22963;SDS011;11648;49.306;6.934;2023-05-16T04:34:35;4.80;;;3.10;;
22963;SDS011;11648;49.306;6.934;2023-05-16T04:37:05;6.33;;;2.70;;
22963;SDS011;11648;49.306;6.934;2023-05-16T04:39:33;3.97;;;2.63;;
22963;SDS011;11648;49.306;6.934;2023-05-16T04:42:00;5.43;;;2.40;;
22963;SDS011;11648;49.306;6.934;2023-05-16T04:44:29;3.90;;;2.73;;
22963;SDS011;11648;49.306;6.934;2023-05-16T04:46:57;5.17;;;2.13;;
22963;SDS011;11648;49.306;6.934;2023-05-16T04:49:24;3.97;;;2.03;;
22963;SDS011;11648;49.306;6.934;2023-05-16T04:51:50;5.80;;;1.80;;
22963;SDS011;11648;49.306;6.934;2023-05-16T04:54:17;2.73;;;1.50;;
22963;SDS011;11648;49.306;6.934;2023-05-16T04:56:44;5.40;;;1.60;;
22963;SDS011;11648;49.306;6.934;2023-05-16T04:59:10;3.03;;;1.50;;
22963;SDS011;11648;49.306;6.934;2023-05-16T05:01:37;3.97;;;1.67;;
22963;SDS011;11648;49.306;6.934;2023-05-16T05:04:05;2.80;;;1.40;;
22963;SDS011;11648;49.306;6.934;2023-05-16T05:06:31;2.03;;;1.00;;
22963;SDS011;11648;49.306;6.934;2023-05-16T05:08:58;2.37;;;1.10;;
22963;SDS011;11648;49.306;6.934;2023-05-16T05:11:25;2.20;;;1.13;;
22963;SDS011;11648;49.306;6.934;2023-05-16T05:13:52;2.00;;;1.07;;
22963;SDS011;11648;49.306;6.934;2023-05-16T05:16:19;3.43;;;1.00;;
22963;SDS011;11648;49.306;6.934;2023-05-16T05:18:46;5.07;;;1.50;;
22963;SDS011;11648;49.306;6.934;2023-05-16T05:21:13;2.27;;;1.10;;
22963;SDS011;11648;49.306;6.934;2023-05-16T05:23:39;3.13;;;0.90;;
22963;SDS011;11648;49.306;6.934;2023-05-16T05:26:06;2.13;;;0.90;;
22963;SDS011;11648;49.306;6.934;2023-05-16T05:28:33;2.50;;;0.97;;
22963;SDS011;11648;49.306;6.934;2023-05-16T05:31:00;1.43;;;0.83;;
22963;SDS011;11648;49.306;6.934;2023-05-16T05:33:26;2.80;;;1.00;;
22963;SDS011;11648;49.306;6.934;2023-05-16T05:35:56;1.80;;;1.00;;
22963;SDS011;11648;49.306;6.934;2023-05-16T05:38:23;2.30;;;0.80;;
22963;SDS011;11648;49.306;6.934;2023-05-16T05:40:49;1.80;;;0.90;;
22963;SDS011;11648;49.306;6.934;2023-05-16T05:43:16;1.73;;;0.70;;
22963;SDS011;11648;49.306;6.934;2023-05-16T05:45:43;1.37;;;0.80;;
22963;SDS011;11648;49.306;6.934;2023-05-16T05:48:10;1.27;;;0.60;;
22963;SDS011;11648;49.306;6.934;2023-05-16T05:50:38;1.17;;;0.67;;
22963;SDS011;11648;49.306;6.934;2023-05-16T05:53:05;2.07;;;0.90;;
22963;SDS011;11648;49.306;6.934;2023-05-16T05:55:31;1.47;;;0.90;;
22963;SDS011;11648;49.306;6.934;2023-05-16T05:57:58;4.80;;;1.30;;
22963;SDS011;11648;49.306;6.934;2023-05-16T06:00:25;1.50;;;0.90;;
22963;SDS011;11648;49.306;6.934;2023-05-16T06:02:52;1.30;;;0.70;;
22963;SDS011;11648;49.306;6.934;2023-05-16T06:05:19;0.70;;;0.50;;
22963;SDS011;11648;49.306;6.934;2023-05-16T06:07:45;2.17;;;0.60;;
22963;SDS011;11648;49.306;6.934;2023-05-16T06:10:12;0.80;;;0.40;;
22963;SDS011;11648;49.306;6.934;2023-05-16T06:12:39;0.90;;;0.50;;
22963;SDS011;11648;49.306;6.934;2023-05-16T06:15:06;0.77;;;0.40;;
22963;SDS011;11648;49.306;6.934;2023-05-16T06:17:33;1.63;;;0.50;;
22963;SDS011;11648;49.306;6.934;2023-05-16T06:20:00;1.30;;;0.40;;
22963;SDS011;11648;49.306;6.934;2023-05-16T06:22:28;0.87;;;0.40;;
22963;SDS011;11648;49.306;6.934;2023-05-16T06:24:54;1.90;;;0.30;;
22963;SDS011;11648;49.306;6.934;2023-05-16T06:27:21;1.03;;;0.30;;
22963;SDS011;11648;49.306;6.934;2023-05-16T06:29:48;0.50;;;0.30;;
22963;SDS011;11648;49.306;6.934;2023-05-16T06:32:14;0.40;;;0.30;;
22963;SDS011;11648;49.306;6.934;2023-05-16T06:34:41;0.93;;;0.83;;
22963;SDS011;11648;49.306;6.934;2023-05-16T06:37:08;0.70;;;0.40;;
22963;SDS011;11648;49.306;6.934;2023-05-16T06:39:35;0.50;;;0.30;;
22963;SDS011;11648;49.306;6.934;2023-05-16T06:42:02;1.07;;;0.30;;
22963;SDS011;11648;49.306;6.934;2023-05-16T06:44:31;1.83;;;0.33;;
22963;SDS011;11648;49.306;6.934;2023-05-16T06:46:57;0.40;;;0.30;;
22963;SDS011;11648;49.306;6.934;2023-05-16T06:49:24;0.73;;;0.40;;
22963;SDS011;11648;49.306;6.934;2023-05-16T06:51:51;1.00;;;0.50;;
22963;SDS011;11648;49.306;6.934;2023-05-16T06:54:18;0.77;;;0.40;;
22963;SDS011;11648;49.306;6.934;2023-05-16T06:56:44;0.83;;;0.50;;
22963;SDS011;11648;49.306;6.934;2023-05-16T06:59:11;1.00;;;0.60;;
22963;SDS011;11648;49.306;6.934;2023-05-16T07:01:38;3.23;;;0.70;;
22963;SDS011;11648;49.306;6.934;2023-05-16T07:04:05;1.57;;;0.67;;
22963;SDS011;11648;49.306;6.934;2023-05-16T07:06:32;1.37;;;0.70;;
22963;SDS011;11648;49.306;6.934;2023-05-16T07:08:59;1.00;;;0.67;;
22963;SDS011;11648;49.306;6.934;2023-05-16T07:11:25;1.50;;;0.73;;
22963;SDS011;11648;49.306;6.934;2023-05-16T07:13:52;2.40;;;1.00;;
22963;SDS011;11648;49.306;6.934;2023-05-16T07:16:19;1.60;;;0.80;;
22963;SDS011;11648;49.306;6.934;2023-05-16T07:18:46;1.67;;;0.87;;
22963;SDS011;11648;49.306;6.934;2023-05-16T07:21:13;2.63;;;0.90;;
22963;SDS011;11648;49.306;6.934;2023-05-16T07:23:39;1.97;;;1.10;;
22963;SDS011;11648;49.306;6.934;2023-05-16T07:26:06;1.30;;;0.87;;
22963;SDS011;11648;49.306;6.934;2023-05-16T07:28:33;2.20;;;1.30;;
22963;SDS011;11648;49.306;6.934;2023-05-16T07:31:00;1.80;;;1.10;;
22963;SDS011;11648;49.306;6.934;2023-05-16T07:33:27;2.33;;;1.33;;
22963;SDS011;11648;49.306;6.934;2023-05-16T07:35:53;2.33;;;1.30;;
22963;SDS011;11648;49.306;6.934;2023-05-16T07:38:40;2.63;;;1.40;;
22963;SDS011;11648;49.306;6.934;2023-05-16T07:41:07;1.80;;;1.17;;
22963;SDS011;11648;49.306;6.934;2023-05-16T07:43:34;1.70;;;1.10;;
22963;SDS011;11648;49.306;6.934;2023-05-16T07:46:02;1.80;;;1.10;;
22963;SDS011;11648;49.306;6.934;2023-05-16T07:48:29;2.33;;;1.00;;
22963;SDS011;11648;49.306;6.934;2023-05-16T07:50:55;1.80;;;1.17;;
22963;SDS011;11648;49.306;6.934;2023-05-16T07:53:23;1.67;;;1.10;;
22963;SDS011;11648;49.306;6.934;2023-05-16T07:55:49;1.53;;;0.93;;
22963;SDS011;11648;49.306;6.934;2023-05-16T07:58:17;1.57;;;1.20;;
22963;SDS011;11648;49.306;6.934;2023-05-16T08:00:43;1.50;;;1.07;;
22963;SDS011;11648;49.306;6.934;2023-05-16T08:03:10;1.90;;;1.30;;
22963;SDS011;11648;49.306;6.934;2023-05-16T08:05:37;1.93;;;1.10;;
22963;SDS011;11648;49.306;6.934;2023-05-16T08:08:05;1.73;;;1.10;;
22963;SDS011;11648;49.306;6.934;2023-05-16T08:10:31;2.17;;;1.20;;
22963;SDS011;11648;49.306;6.934;2023-05-16T08:12:58;1.80;;;1.30;;
22963;SDS011;11648;49.306;6.934;2023-05-16T08:15:25;3.37;;;1.50;;
22963;SDS011;11648;49.306;6.934;2023-05-16T08:17:56;2.70;;;1.27;;
22963;SDS011;11648;49.306;6.934;2023-05-16T08:20:24;2.30;;;1.43;;
22963;SDS011;11648;49.306;6.934;2023-05-16T08:22:51;2.27;;;1.60;;
22963;SDS011;11648;49.306;6.934;2023-05-16T08:25:18;2.80;;;1.60;;
22963;SDS011;11648;49.306;6.934;2023-05-16T08:27:47;2.50;;;1.50;;
22963;SDS011;11648;49.306;6.934;2023-05-16T08:30:14;2.70;;;1.70;;
22963;SDS011;11648;49.306;6.934;2023-05-16T08:32:41;2.53;;;1.50;;
22963;SDS011;11648;49.306;6.934;2023-05-16T08:35:08;2.47;;;1.60;;
22963;SDS011;11648;49.306;6.934;2023-05-16T08:37:36;2.37;;;1.50;;
22963;SDS011;11648;49.306;6.934;2023-05-16T08:40:04;2.93;;;1.70;;
22963;SDS011;11648;49.306;6.934;2023-05-16T08:42:33;2.30;;;1.27;;
22963;SDS011;11648;49.306;6.934;2023-05-16T08:45:00;3.83;;;1.77;;
22963;SDS011;11648;49.306;6.934;2023-05-16T08:47:29;3.07;;;1.83;;
22963;SDS011;11648;49.306;6.934;2023-05-16T08:49:57;3.00;;;2.10;;
22963;SDS011;11648;49.306;6.934;2023-05-16T08:52:25;2.70;;;1.80;;
22963;SDS011;11648;49.306;6.934;2023-05-16T08:54:56;3.00;;;2.13;;
22963;SDS011;11648;49.306;6.934;2023-05-16T08:57:36;3.30;;;2.50;;
22963;SDS011;11648;49.306;6.934;2023-05-16T09:00:06;4.13;;;2.93;;
22963;SDS011;11648;49.306;6.934;2023-05-16T09:02:39;5.47;;;3.23;;
22963;SDS011;11648;49.306;6.934;2023-05-16T09:05:08;4.93;;;3.50;;
22963;SDS011;11648;49.306;6.934;2023-05-16T09:07:37;5.97;;;4.30;;
22963;SDS011;11648;49.306;6.934;2023-05-16T09:10:05;5.00;;;3.80;;
22963;SDS011;11648;49.306;6.934;2023-05-16T09:12:32;6.90;;;4.10;;
22963;SDS011;11648;49.306;6.934;2023-05-16T09:15:03;6.17;;;4.30;;
22963;SDS011;11648;49.306;6.934;2023-05-16T09:17:42;7.30;;;4.63;;
22963;SDS011;11648;49.306;6.934;2023-05-16T09:20:11;6.17;;;4.57;;
22963;SDS011;11648;49.306;6.934;2023-05-16T09:22:40;6.97;;;5.63;;
22963;SDS011;11648;49.306;6.934;2023-05-16T09:25:17;15.60;;;9.87;;
22963;SDS011;11648;49.306;6.934;2023-05-16T09:27:56;12.57;;;8.57;;
22963;SDS011;11648;49.306;6.934;2023-05-16T09:30:28;7.47;;;5.63;;
22963;SDS011;11648;49.306;6.934;2023-05-16T09:32:57;5.93;;;4.40;;
22963;SDS011;11648;49.306;6.934;2023-05-16T09:35:25;5.93;;;4.40;;
22963;SDS011;11648;49.306;6.934;2023-05-16T09:37:55;7.23;;;3.90;;
22963;SDS011;11648;49.306;6.934;2023-05-16T09:40:22;7.20;;;3.90;;
22963;SDS011;11648;49.306;6.934;2023-05-16T09:45:30;5.93;;;4.00;;
22963;SDS011;11648;49.306;6.934;2023-05-16T09:48:07;5.30;;;3.60;;
22963;SDS011;11648;49.306;6.934;2023-05-16T09:50:36;6.60;;;4.33;;
22963;SDS011;11648;49.306;6.934;2023-05-16T09:53:03;7.53;;;4.80;;
22963;SDS011;11648;49.306;6.934;2023-05-16T09:55:31;7.03;;;4.17;;
22963;SDS011;11648;49.306;6.934;2023-05-16T09:57:58;6.80;;;3.90;;
22963;SDS011;11648;49.306;6.934;2023-05-16T10:00:29;6.73;;;4.43;;
22963;SDS011;11648;49.306;6.934;2023-05-16T10:02:57;7.70;;;4.03;;
22963;SDS011;11648;49.306;6.934;2023-05-16T10:05:29;6.03;;;3.50;;
22963;SDS011;11648;49.306;6.934;2023-05-16T10:07:56;5.77;;;3.30;;
22963;SDS011;11648;49.306;6.934;2023-05-16T10:10:24;5.70;;;3.10;;
22963;SDS011;11648;49.306;6.934;2023-05-16T10:12:51;4.80;;;2.60;;
22963;SDS011;11648;49.306;6.934;2023-05-16T10:15:18;4.77;;;2.90;;
22963;SDS011;11648;49.306;6.934;2023-05-16T10:17:48;5.30;;;2.83;;
22963;SDS011;11648;49.306;6.934;2023-05-16T10:20:18;4.00;;;2.33;;
22963;SDS011;11648;49.306;6.934;2023-05-16T10:22:46;5.47;;;2.00;;
22963;SDS011;11648;49.306;6.934;2023-05-16T10:25:24;4.10;;;1.50;;
22963;SDS011;11648;49.306;6.934;2023-05-16T10:27:56;7.23;;;1.90;;
22963;SDS011;11648;49.306;6.934;2023-05-16T10:30:23;6.27;;;1.47;;
22963;SDS011;11648;49.306;6.934;2023-05-16T10:32:50;5.67;;;1.73;;
22963;SDS011;11648;49.306;6.934;2023-05-16T10:35:19;5.63;;;1.57;;
22963;SDS011;11648;49.306;6.934;2023-05-16T10:37:47;6.77;;;3.00;;
22963;SDS011;11648;49.306;6.934;2023-05-16T10:40:15;7.13;;;4.43;;
22963;SDS011;11648;49.306;6.934;2023-05-16T10:42:53;8.30;;;3.03;;
22963;SDS011;11648;49.306;6.934;2023-05-16T10:45:22;4.40;;;1.80;;
22963;SDS011;11648;49.306;6.934;2023-05-16T10:47:50;7.67;;;3.20;;
22963;SDS011;11648;49.306;6.934;2023-05-16T10:50:36;7.13;;;3.33;;
22963;SDS011;11648;49.306;6.934;2023-05-16T11:06:34;9.53;;;2.90;;
22963;SDS011;11648;49.306;6.934;2023-05-16T11:14:04;5.50;;;2.00;;
22963;SDS011;11648;49.306;6.934;2023-05-16T11:16:31;4.67;;;2.17;;
22963;SDS011;11648;49.306;6.934;2023-05-16T11:19:03;4.53;;;1.83;;
22963;SDS011;11648;49.306;6.934;2023-05-16T11:24:30;5.47;;;1.92;;
22963;SDS011;11648;49.306;6.934;2023-05-16T11:27:00;4.97;;;2.20;;
22963;SDS011;11648;49.306;6.934;2023-05-16T11:29:30;4.43;;;1.83;;
22963;SDS011;11648;49.306;6.934;2023-05-16T11:31:58;5.60;;;2.43;;
22963;SDS011;11648;49.306;6.934;2023-05-16T11:34:26;5.30;;;1.97;;
22963;SDS011;11648;49.306;6.934;2023-05-16T11:36:53;4.10;;;1.83;;
22963;SDS011;11648;49.306;6.934;2023-05-16T11:39:20;4.63;;;1.90;;
22963;SDS011;11648;49.306;6.934;2023-05-16T11:41:50;4.27;;;1.63;;
22963;SDS011;11648;49.306;6.934;2023-05-16T11:44:17;4.97;;;1.60;;
22963;SDS011;11648;49.306;6.934;2023-05-16T11:46:44;5.53;;;2.10;;
22963;SDS011;11648;49.306;6.934;2023-05-16T11:49:12;7.03;;;2.00;;
22963;SDS011;11648;49.306;6.934;2023-05-16T11:51:39;5.83;;;1.83;;
22963;SDS011;11648;49.306;6.934;2023-05-16T11:54:08;5.07;;;1.40;;
22963;SDS011;11648;49.306;6.934;2023-05-16T11:56:35;2.60;;;1.40;;
22963;SDS011;11648;49.306;6.934;2023-05-16T11:59:02;3.83;;;1.53;;
22963;SDS011;11648;49.306;6.934;2023-05-16T12:01:36;3.53;;;1.27;;
22963;SDS011;11648;49.306;6.934;2023-05-16T12:04:11;3.42;;;1.30;;
22963;SDS011;11648;49.306;6.934;2023-05-16T12:06:39;5.50;;;1.30;;
22963;SDS011;11648;49.306;6.934;2023-05-16T12:09:13;3.45;;;1.10;;
22963;SDS011;11648;49.306;6.934;2023-05-16T12:11:43;4.88;;;1.40;;
22963;SDS011;11648;49.306;6.934;2023-05-16T12:14:11;6.85;;;1.50;;
22963;SDS011;11648;49.306;6.934;2023-05-16T12:16:39;3.58;;;1.13;;
22963;SDS011;11648;49.306;6.934;2023-05-16T12:19:09;4.32;;;1.45;;
22963;SDS011;11648;49.306;6.934;2023-05-16T12:21:37;4.55;;;1.33;;
22963;SDS011;11648;49.306;6.934;2023-05-16T12:24:04;4.38;;;1.42;;
22963;SDS011;11648;49.306;6.934;2023-05-16T12:26:34;4.07;;;1.43;;
22963;SDS011;11648;49.306;6.934;2023-05-16T12:29:01;5.27;;;1.60;;
22963;SDS011;11648;49.306;6.934;2023-05-16T12:31:33;4.87;;;1.30;;
22963;SDS011;11648;49.306;6.934;2023-05-16T12:34:02;3.53;;;1.40;;
22963;SDS011;11648;49.306;6.934;2023-05-16T12:36:32;2.30;;;0.90;;
22963;SDS011;11648;49.306;6.934;2023-05-16T12:39:00;2.93;;;1.10;;
22963;SDS011;11648;49.306;6.934;2023-05-16T12:41:29;6.70;;;1.60;;
22963;SDS011;11648;49.306;6.934;2023-05-16T12:44:06;3.73;;;1.20;;
22963;SDS011;11648;49.306;6.934;2023-05-16T12:46:41;6.27;;;1.23;;
22963;SDS011;11648;49.306;6.934;2023-05-16T12:49:09;5.23;;;1.60;;
22963;SDS011;11648;49.306;6.934;2023-05-16T12:51:35;4.53;;;1.40;;
22963;SDS011;11648;49.306;6.934;2023-05-16T12:54:09;4.23;;;1.40;;
22963;SDS011;11648;49.306;6.934;2023-05-16T12:56:38;4.47;;;1.60;;
22963;SDS011;11648;49.306;6.934;2023-05-16T12:59:06;4.90;;;1.50;;
22963;SDS011;11648;49.306;6.934;2023-05-16T13:01:34;4.97;;;1.60;;
22963;SDS011;11648;49.306;6.934;2023-05-16T13:04:02;3.07;;;1.20;;
22963;SDS011;11648;49.306;6.934;2023-05-16T13:06:30;4.47;;;1.30;;
22963;SDS011;11648;49.306;6.934;2023-05-16T13:09:17;6.63;;;1.33;;
22963;SDS011;11648;49.306;6.934;2023-05-16T13:11:44;4.80;;;1.30;;
22963;SDS011;11648;49.306;6.934;2023-05-16T13:14:11;5.30;;;1.50;;
22963;SDS011;11648;49.306;6.934;2023-05-16T13:16:38;5.67;;;1.70;;
22963;SDS011;11648;49.306;6.934;2023-05-16T13:19:05;6.07;;;2.00;;
22963;SDS011;11648;49.306;6.934;2023-05-16T13:21:32;5.97;;;1.57;;
22963;SDS011;11648;49.306;6.934;2023-05-16T13:23:58;6.87;;;1.80;;
22963;SDS011;11648;49.306;6.934;2023-05-16T13:26:25;4.03;;;1.50;;
22963;SDS011;11648;49.306;6.934;2023-05-16T13:28:52;6.10;;;1.90;;
22963;SDS011;11648;49.306;6.934;2023-05-16T13:31:20;5.10;;;2.30;;
22963;SDS011;11648;49.306;6.934;2023-05-16T13:33:50;4.60;;;1.50;;
22963;SDS011;11648;49.306;6.934;2023-05-16T13:36:17;3.70;;;1.40;;
22963;SDS011;11648;49.306;6.934;2023-05-16T13:38:44;3.37;;;1.60;;
22963;SDS011;11648;49.306;6.934;2023-05-16T13:41:11;2.73;;;1.33;;
22963;SDS011;11648;49.306;6.934;2023-05-16T13:43:37;3.23;;;1.23;;
22963;SDS011;11648;49.306;6.934;2023-05-16T13:46:04;4.37;;;1.50;;
22963;SDS011;11648;49.306;6.934;2023-05-16T13:48:31;6.27;;;1.23;;
22963;SDS011;11648;49.306;6.934;2023-05-16T13:50:58;4.37;;;1.47;;
22963;SDS011;11648;49.306;6.934;2023-05-16T13:53:25;4.67;;;1.10;;
22963;SDS011;11648;49.306;6.934;2023-05-16T13:55:52;4.17;;;1.20;;
22963;SDS011;11648;49.306;6.934;2023-05-16T13:58:19;5.77;;;1.30;;
22963;SDS011;11648;49.306;6.934;2023-05-16T14:00:47;6.73;;;1.57;;
22963;SDS011;11648;49.306;6.934;2023-05-16T14:03:14;3.33;;;1.10;;
22963;SDS011;11648;49.306;6.934;2023-05-16T14:05:41;4.63;;;1.20;;
22963;SDS011;11648;49.306;6.934;2023-05-16T14:08:08;3.57;;;1.10;;
22963;SDS011;11648;49.306;6.934;2023-05-16T14:10:35;3.40;;;1.00;;
22963;SDS011;11648;49.306;6.934;2023-05-16T14:13:01;4.30;;;1.23;;
22963;SDS011;11648;49.306;6.934;2023-05-16T14:15:28;2.93;;;0.97;;
22963;SDS011;11648;49.306;6.934;2023-05-16T14:17:55;6.07;;;1.10;;
22963;SDS011;11648;49.306;6.934;2023-05-16T14:20:22;4.83;;;1.20;;
22963;SDS011;11648;49.306;6.934;2023-05-16T14:22:49;5.40;;;1.93;;
22963;SDS011;11648;49.306;6.934;2023-05-16T14:25:16;3.27;;;1.13;;
22963;SDS011;11648;49.306;6.934;2023-05-16T14:27:42;3.73;;;1.20;;
22963;SDS011;11648;49.306;6.934;2023-05-16T14:30:09;3.17;;;0.97;;
22963;SDS011;11648;49.306;6.934;2023-05-16T14:32:36;3.43;;;0.90;;
22963;SDS011;11648;49.306;6.934;2023-05-16T14:35:03;3.17;;;0.90;;
22963;SDS011;11648;49.306;6.934;2023-05-16T14:37:30;3.43;;;1.00;;
22963;SDS011;11648;49.306;6.934;2023-05-16T14:39:58;6.77;;;1.17;;
22963;SDS011;11648;49.306;6.934;2023-05-16T14:42:26;4.40;;;1.00;;
22963;SDS011;11648;49.306;6.934;2023-05-16T14:44:52;3.50;;;0.90;;
22963;SDS011;11648;49.306;6.934;2023-05-16T14:47:19;4.23;;;0.80;;
22963;SDS011;11648;49.306;6.934;2023-05-16T14:49:46;3.07;;;0.90;;
22963;SDS011;11648;49.306;6.934;2023-05-16T14:52:12;3.43;;;0.87;;
22963;SDS011;11648;49.306;6.934;2023-05-16T14:54:39;4.37;;;0.80;;
22963;SDS011;11648;49.306;6.934;2023-05-16T14:57:06;4.73;;;1.23;;
22963;SDS011;11648;49.306;6.934;2023-05-16T14:59:33;4.60;;;1.20;;
22963;SDS011;11648;49.306;6.934;2023-05-16T15:02:00;4.43;;;0.93;;
22963;SDS011;11648;49.306;6.934;2023-05-16T15:04:27;5.20;;;1.00;;
22963;SDS011;11648;49.306;6.934;2023-05-16T15:06:54;3.07;;;0.97;;
22963;SDS011;11648;49.306;6.934;2023-05-16T15:09:21;4.07;;;0.70;;
22963;SDS011;11648;49.306;6.934;2023-05-16T15:11:48;3.20;;;0.70;;
22963;SDS011;11648;49.306;6.934;2023-05-16T15:14:14;4.17;;;1.00;;
22963;SDS011;11648;49.306;6.934;2023-05-16T15:16:41;3.27;;;0.90;;
22963;SDS011;11648;49.306;6.934;2023-05-16T15:19:08;3.93;;;0.80;;
22963;SDS011;11648;49.306;6.934;2023-05-16T15:21:35;6.53;;;1.10;;
22963;SDS011;11648;49.306;6.934;2023-05-16T15:24:02;3.57;;;1.00;;
22963;SDS011;11648;49.306;6.934;2023-05-16T15:26:29;5.57;;;0.97;;